Time;durP1;ratioP1;P1;durP2;ratioP2;P2;SDS_P1;SDS_P2;PMS_P1;PMS_P2;Temp;Humidity;BMP_temperature;BMP_pressure;BME280_temperature;BME280_humidity;BME280_pressure;Samples;Min_cycle;Max_cycle;Signal;HPM_P1;HPM_P2
2023/07/25 00:02:23;;;;;;;7.20;4.60;;;;;;;11.72;100.00;100685.72;5044290;28;20033;-77
2023/07/25 00:04:48;;;;;;;9.07;4.45;;;;;;;11.67;100.00;100687.63;5041054;28;20025;-77
2023/07/25 00:07:14;;;;;;;9.00;4.95;;;;;;;11.64;100.00;100682.50;5047062;28;20017;-77
2023/07/25 00:09:39;;;;;;;9.00;5.00;;;;;;;11.61;100.00;100695.66;5040493;28;20024;-77
2023/07/25 00:12:05;;;;;;;6.00;4.88;;;;;;;11.65;100.00;100693.81;5041753;28;20526;-77
2023/07/25 00:14:32;;;;;;;7.32;4.70;;;;;;;11.72;100.00;100682.25;5042419;28;20038;-77
2023/07/25 00:16:57;;;;;;;7.07;4.72;;;;;;;11.65;100.00;100686.81;5047795;28;20025;-77
2023/07/25 00:19:22;;;;;;;7.15;4.40;;;;;;;11.61;100.00;100684.34;5039538;28;20071;-77
2023/07/25 00:21:48;;;;;;;12.70;5.28;;;;;;;11.49;100.00;100683.81;5046793;28;20029;-77
2023/07/25 00:24:13;;;;;;;10.00;5.18;;;;;;;11.48;100.00;100679.50;5036652;28;20057;-77
2023/07/25 00:26:38;;;;;;;9.93;4.80;;;;;;;11.54;100.00;100686.25;5044180;28;20024;-76
2023/07/25 00:29:04;;;;;;;8.38;5.47;;;;;;;11.50;100.00;100687.25;5043802;28;20029;-77
2023/07/25 00:31:29;;;;;;;7.80;5.05;;;;;;;11.47;100.00;100693.44;5042258;28;20116;-77
2023/07/25 00:33:55;;;;;;;8.13;5.35;;;;;;;11.47;100.00;100689.97;5040892;28;20198;-76
2023/07/25 00:36:20;;;;;;;8.63;5.00;;;;;;;11.45;100.00;100681.34;5042884;28;20048;-76
2023/07/25 00:38:45;;;;;;;10.63;5.53;;;;;;;11.42;100.00;100686.66;5042592;28;20082;-76
2023/07/25 00:41:11;;;;;;;7.43;5.15;;;;;;;11.37;100.00;100684.16;5036361;28;20496;-76
2023/07/25 00:43:36;;;;;;;9.48;5.50;;;;;;;11.34;100.00;100681.63;5038377;28;20033;-76
2023/07/25 00:46:01;;;;;;;6.95;5.00;;;;;;;11.37;100.00;100692.00;5043696;28;20021;-76
2023/07/25 00:48:28;;;;;;;8.45;5.15;;;;;;;11.34;100.00;100693.84;5034550;28;20028;-76
2023/07/25 00:50:54;;;;;;;6.75;5.15;;;;;;;11.31;100.00;100684.34;5043443;28;20112;-76
2023/07/25 00:53:20;;;;;;;10.63;6.15;;;;;;;11.34;100.00;100689.47;5043373;28;20037;-76
2023/07/25 00:55:46;;;;;;;8.20;5.55;;;;;;;11.30;100.00;100673.94;5044758;28;20024;-76
2023/07/25 00:58:12;;;;;;;9.57;5.40;;;;;;;11.32;100.00;100680.00;5040641;28;20503;-77
2023/07/25 01:00:38;;;;;;;9.43;5.95;;;;;;;11.36;100.00;100684.22;5035705;28;20022;-77
2023/07/25 01:03:04;;;;;;;10.43;5.72;;;;;;;11.35;100.00;100690.34;5047084;28;20106;-76
2023/07/25 01:05:34;;;;;;;8.00;5.30;;;;;;;11.39;100.00;100690.19;5046557;28;20371;-76
2023/07/25 01:07:59;;;;;;;8.25;5.63;;;;;;;11.43;100.00;100683.97;5041535;28;20030;-76
2023/07/25 01:10:25;;;;;;;12.57;6.20;;;;;;;11.48;100.00;100682.09;5046480;28;20028;-76
2023/07/25 01:12:50;;;;;;;9.02;5.80;;;;;;;11.48;100.00;100679.50;5045923;28;20381;-76
2023/07/25 01:15:15;;;;;;;10.73;6.45;;;;;;;11.41;100.00;100667.53;5046173;28;20144;-76
2023/07/25 01:17:41;;;;;;;10.30;5.95;;;;;;;11.37;100.00;100659.81;5047230;28;20068;-77
2023/07/25 01:20:08;;;;;;;9.55;6.05;;;;;;;11.52;100.00;100679.41;5039232;28;20080;-77
2023/07/25 01:22:36;;;;;;;11.38;6.35;;;;;;;11.60;100.00;100675.63;5045255;28;20082;-76
2023/07/25 01:25:02;;;;;;;14.10;6.47;;;;;;;11.68;100.00;100678.03;5047680;28;20453;-77
2023/07/25 01:27:27;;;;;;;10.90;6.10;;;;;;;11.59;100.00;100678.31;5042650;28;20036;-76
2023/07/25 01:29:52;;;;;;;7.60;5.70;;;;;;;11.55;100.00;100680.16;5048692;28;20029;-77
2023/07/25 01:32:18;;;;;;;11.55;5.88;;;;;;;11.49;100.00;100677.72;5042932;28;20079;-77
2023/07/25 01:34:43;;;;;;;8.05;6.07;;;;;;;11.38;100.00;100666.75;5045942;28;20511;-76
2023/07/25 01:37:08;;;;;;;9.95;6.10;;;;;;;11.33;100.00;100672.09;5044296;28;20022;-76
2023/07/25 01:39:34;;;;;;;11.63;6.25;;;;;;;11.30;100.00;100674.81;5045583;28;20123;-76
2023/07/25 01:41:59;;;;;;;9.70;5.68;;;;;;;11.23;100.00;100671.50;5046678;28;20096;-76
2023/07/25 01:44:24;;;;;;;10.20;5.80;;;;;;;11.20;100.00;100670.75;5043269;28;20038;-76
2023/07/25 01:46:50;;;;;;;13.80;6.13;;;;;;;11.16;100.00;100663.91;5049878;28;20021;-76
2023/07/25 01:49:15;;;;;;;8.55;5.90;;;;;;;11.13;100.00;100667.47;5042221;28;20477;-77
2023/07/25 01:51:40;;;;;;;9.82;6.00;;;;;;;11.17;100.00;100663.00;5050205;28;20029;-77
2023/07/25 01:54:06;;;;;;;10.52;5.40;;;;;;;11.08;100.00;100656.28;5042669;28;20033;-77
2023/07/25 01:56:31;;;;;;;10.88;5.65;;;;;;;11.08;100.00;100665.88;5049301;28;20076;-77
2023/07/25 01:58:56;;;;;;;11.75;5.90;;;;;;;11.06;100.00;100658.09;5037154;28;20037;-77
2023/07/25 02:01:22;;;;;;;8.70;5.88;;;;;;;11.01;100.00;100653.00;5044391;28;20052;-77
2023/07/25 02:03:47;;;;;;;10.68;5.55;;;;;;;10.97;100.00;100653.16;5043047;28;20071;-76
2023/07/25 02:06:13;;;;;;;11.80;6.53;;;;;;;10.97;100.00;100653.16;5038452;28;20095;-76
2023/07/25 02:08:38;;;;;;;10.20;5.75;;;;;;;10.94;100.00;100654.06;5037532;28;20096;-76
2023/07/25 02:11:04;;;;;;;9.38;6.15;;;;;;;10.97;100.00;100648.78;5035479;28;20488;-76
2023/07/25 02:13:29;;;;;;;9.30;5.90;;;;;;;10.92;100.00;100647.19;5038679;28;20028;-76
2023/07/25 02:15:55;;;;;;;9.75;6.10;;;;;;;10.86;100.00;100647.38;5045081;28;20029;-77
2023/07/25 02:18:20;;;;;;;10.65;6.55;;;;;;;10.83;100.00;100639.66;5039318;28;20057;-76
2023/07/25 02:20:45;;;;;;;12.25;6.38;;;;;;;10.83;100.00;100650.94;5043886;28;20029;-76
2023/07/25 02:23:10;;;;;;;8.05;6.30;;;;;;;10.77;100.00;100646.72;5038834;28;20033;-76
2023/07/25 02:25:36;;;;;;;8.02;6.22;;;;;;;10.85;100.00;100650.88;5044646;28;20119;-76
2023/07/25 02:28:01;;;;;;;10.43;6.68;;;;;;;10.84;100.00;100642.19;5043277;28;20484;-76
2023/07/25 02:30:26;;;;;;;7.90;6.43;;;;;;;10.80;100.00;100640.56;5042021;28;20033;-76
2023/07/25 02:32:52;;;;;;;11.98;6.68;;;;;;;10.78;100.00;100642.34;5036606;28;20037;-76
2023/07/25 02:35:17;;;;;;;8.48;6.60;;;;;;;10.80;100.00;100637.13;5039577;28;20052;-76
2023/07/25 02:37:43;;;;;;;11.60;6.50;;;;;;;10.82;100.00;100643.13;5045968;28;20082;-76
2023/07/25 02:40:08;;;;;;;9.10;6.32;;;;;;;10.77;100.00;100638.06;5044014;28;20374;-76
2023/07/25 02:42:34;;;;;;;8.05;6.50;;;;;;;10.81;100.00;100644.03;5043502;28;20112;-76
2023/07/25 02:44:59;;;;;;;12.35;5.90;;;;;;;10.80;100.00;100648.41;5047186;28;20032;-76
2023/07/25 02:47:25;;;;;;;9.77;6.68;;;;;;;10.83;100.00;100652.69;5041390;28;20033;-76
2023/07/25 02:49:50;;;;;;;12.20;6.25;;;;;;;10.76;100.00;100642.41;5048288;28;20489;-76
2023/07/25 02:52:16;;;;;;;7.65;5.75;;;;;;;10.80;100.00;100637.13;5041192;28;20069;-76
2023/07/25 02:54:42;;;;;;;8.45;6.30;;;;;;;10.84;100.00;100652.63;5049690;28;20025;-76
2023/07/25 02:57:07;;;;;;;9.63;6.10;;;;;;;10.86;100.00;100643.03;5040364;28;20092;-76
2023/07/25 02:59:32;;;;;;;10.75;6.40;;;;;;;10.95;100.00;100647.97;5048271;28;20064;-76
2023/07/25 03:01:58;;;;;;;9.07;6.13;;;;;;;10.97;100.00;100647.94;5041339;28;20033;-76
2023/07/25 03:04:23;;;;;;;8.00;5.93;;;;;;;10.98;100.00;100650.47;5047638;28;20025;-76
2023/07/25 03:06:48;;;;;;;7.07;6.30;;;;;;;10.92;100.00;100635.03;5042955;28;20033;-76
2023/07/25 03:09:14;;;;;;;11.52;6.43;;;;;;;10.99;100.00;100647.00;5041408;28;20075;-76
2023/07/25 03:11:39;;;;;;;9.60;5.90;;;;;;;11.02;100.00;100653.88;5046158;28;20029;-76
2023/07/25 03:14:04;;;;;;;9.07;6.07;;;;;;;11.01;100.00;100644.31;5036520;28;20029;-76
2023/07/25 03:16:29;;;;;;;8.20;6.32;;;;;;;11.05;100.00;100639.88;5044003;28;20373;-76
2023/07/25 03:18:55;;;;;;;11.15;6.32;;;;;;;11.11;100.00;100644.91;5044368;28;20158;-75
2023/07/25 03:21:20;;;;;;;16.13;6.95;;;;;;;11.13;100.00;100648.34;5041560;28;20025;-76
2023/07/25 03:23:46;;;;;;;11.55;6.63;;;;;;;11.16;100.00;100646.50;5044222;28;20419;-76
2023/07/25 03:26:11;;;;;;;9.02;6.35;;;;;;;11.24;100.00;100646.28;5042141;28;20473;-76
2023/07/25 03:28:36;;;;;;;12.85;6.80;;;;;;;11.29;100.00;100636.56;5043205;28;20060;-76
2023/07/25 03:31:04;;;;;;;12.25;6.43;;;;;;;11.30;100.00;100643.47;5037047;28;20529;-76
2023/07/25 03:33:29;;;;;;;11.13;6.50;;;;;;;11.33;100.00;100635.56;5044346;28;20400;-76
2023/07/25 03:35:55;;;;;;;9.30;6.93;;;;;;;11.35;100.00;100633.78;5043394;28;20017;-76
2023/07/25 03:38:20;;;;;;;10.48;6.75;;;;;;;11.27;100.00;100625.31;5043198;28;20036;-76
2023/07/25 03:40:46;;;;;;;9.20;6.35;;;;;;;11.39;100.00;100637.16;5043886;28;20072;-76
2023/07/25 03:43:11;;;;;;;11.98;6.38;;;;;;;11.36;100.00;100635.47;5043293;28;20025;-77
2023/07/25 03:45:36;;;;;;;13.10;6.50;;;;;;;11.39;100.00;100630.16;5043165;28;20017;-76
2023/07/25 03:48:02;;;;;;;11.40;6.50;;;;;;;11.41;100.00;100633.59;5044110;28;20473;-76
2023/07/25 03:50:27;;;;;;;11.10;6.70;;;;;;;11.37;100.00;100641.53;5042529;28;20465;-76
2023/07/25 03:52:52;;;;;;;9.93;6.57;;;;;;;11.32;100.00;100630.41;5043955;28;20025;-76
2023/07/25 03:55:17;;;;;;;9.15;6.75;;;;;;;11.25;100.00;100637.56;5045237;28;20030;-76
2023/07/25 03:57:43;;;;;;;12.57;7.40;;;;;;;11.21;100.00;100643.75;5041383;28;20025;-76
2023/07/25 04:00:09;;;;;;;15.15;7.07;;;;;;;11.15;100.00;100639.59;5047231;28;20412;-76
2023/07/25 04:02:34;;;;;;;16.77;7.03;;;;;;;11.11;100.00;100644.91;5039703;28;20018;-76
2023/07/25 04:04:59;;;;;;;14.93;8.05;;;;;;;11.16;100.00;100643.91;5043344;28;20385;-76
2023/07/25 04:07:24;;;;;;;11.30;7.50;;;;;;;11.18;100.00;100638.63;5042982;28;20492;-77
2023/07/25 04:09:50;;;;;;;10.00;6.90;;;;;;;11.16;100.00;100633.47;5041012;28;20042;-76
2023/07/25 04:12:15;;;;;;;9.20;7.38;;;;;;;11.12;100.00;100641.44;5045494;28;20029;-76
2023/07/25 04:14:40;;;;;;;10.93;6.93;;;;;;;11.13;100.00;100643.13;5040064;28;20388;-76
2023/07/25 04:17:06;;;;;;;10.25;6.68;;;;;;;11.06;100.00;100637.25;5045943;28;20071;-76
2023/07/25 04:19:32;;;;;;;10.00;7.05;;;;;;;11.16;100.00;100637.81;5040144;28;20509;-77
2023/07/25 04:21:57;;;;;;;13.05;7.03;;;;;;;11.14;100.00;100640.47;5040528;28;20036;-76
2023/07/25 04:24:22;;;;;;;12.13;8.30;;;;;;;11.10;100.00;100635.41;5042614;28;20029;-76
2023/07/25 04:26:48;;;;;;;13.02;8.50;;;;;;;11.04;100.00;100636.41;5045012;28;20553;-76
2023/07/25 04:29:13;;;;;;;16.10;8.73;;;;;;;11.05;100.00;100639.88;5046137;28;20384;-76
2023/07/25 04:31:38;;;;;;;14.18;9.15;;;;;;;11.07;100.00;100643.31;5043578;28;20539;-76
2023/07/25 04:34:03;;;;;;;16.08;7.70;;;;;;;11.15;100.00;100644.81;5042768;28;20481;-76
2023/07/25 04:36:29;;;;;;;12.10;7.47;;;;;;;11.18;100.00;100641.22;5048816;28;20124;-76
2023/07/25 04:38:56;;;;;;;15.30;7.80;;;;;;;11.22;100.00;100643.72;5042758;28;20075;-77
2023/07/25 04:41:22;;;;;;;11.00;7.78;;;;;;;11.27;100.00;100640.97;5045104;28;20048;-76
2023/07/25 04:43:47;;;;;;;10.18;7.47;;;;;;;11.38;100.00;100644.13;5041593;28;20391;-76
2023/07/25 04:46:12;;;;;;;14.20;7.43;;;;;;;11.46;100.00;100647.34;5050064;28;20025;-75
2023/07/25 04:48:38;;;;;;;10.73;7.03;;;;;;;11.52;100.00;100645.47;5044982;28;20053;-76
2023/07/25 04:51:03;;;;;;;14.93;8.00;;;;;;;11.56;100.00;100637.47;5047241;28;20031;-76
2023/07/25 04:53:28;;;;;;;13.27;8.07;;;;;;;11.62;100.00;100632.06;5045902;28;20025;-76
2023/07/25 04:55:54;;;;;;;10.70;7.53;;;;;;;11.65;100.00;100623.28;5047659;28;20057;-76
2023/07/25 04:58:19;;;;;;;11.82;6.88;;;;;;;11.80;100.00;100633.25;5047115;28;20376;-76
2023/07/25 05:00:44;;;;;;;10.07;6.97;;;;;;;11.90;100.00;100633.84;5045480;28;20076;-76
2023/07/25 05:03:10;;;;;;;18.10;7.72;;;;;;;12.02;100.00;100629.97;5047144;28;20037;-76
2023/07/25 05:05:35;;;;;;;12.82;7.47;;;;;;;12.05;100.00;100627.25;5044698;28;20511;-77
2023/07/25 05:08:01;;;;;;;10.55;7.10;;;;;;;12.09;100.00;100628.88;5045674;28;20113;-76
2023/07/25 05:10:26;;;;;;;13.05;7.30;;;;;;;12.19;100.00;100638.09;5046505;28;20068;-76
2023/07/25 05:12:51;;;;;;;10.32;7.10;;;;;;;12.28;100.00;100644.78;5043796;28;20398;-76
2023/07/25 05:15:17;;;;;;;11.98;7.50;;;;;;;12.38;100.00;100649.66;5046804;28;20447;-76
2023/07/25 05:17:42;;;;;;;11.32;6.93;;;;;;;12.54;100.00;100654.38;5045444;28;20480;-76
2023/07/25 05:20:08;;;;;;;11.60;6.90;;;;;;;12.65;100.00;100653.09;5044912;28;20885;-76
2023/07/25 05:22:33;;;;;;;12.57;6.60;;;;;;;12.74;100.00;100651.06;5047052;28;20087;-76
2023/07/25 05:24:58;;;;;;;9.10;6.38;;;;;;;12.79;100.00;100636.91;5043358;28;20108;-76
2023/07/25 05:27:24;;;;;;;9.98;6.80;;;;;;;12.92;100.00;100639.94;5048383;28;20064;-76
2023/07/25 05:29:49;;;;;;;12.30;7.05;;;;;;;13.01;100.00;100638.72;5043040;28;20034;-76
2023/07/25 05:32:14;;;;;;;11.30;6.90;;;;;;;13.01;100.00;100649.19;5044561;28;20113;-76
2023/07/25 05:34:39;;;;;;;9.95;6.82;;;;;;;13.03;100.00;100655.25;5048990;28;20062;-76
2023/07/25 05:37:06;;;;;;;10.55;6.40;;;;;;;13.00;100.00;100653.59;5045207;28;20044;-76
2023/07/25 05:39:31;;;;;;;11.07;6.40;;;;;;;13.02;100.00;100656.16;5051117;28;20031;-76
2023/07/25 05:41:56;;;;;;;13.15;6.50;;;;;;;13.01;100.00;100657.03;5042319;28;20552;-77
2023/07/25 05:44:21;;;;;;;16.17;6.60;;;;;;;13.02;100.00;100650.94;5051224;28;20083;-76
2023/07/25 05:46:47;;;;;;;13.07;6.45;;;;;;;13.06;100.00;100655.97;5044171;28;20029;-77
2023/07/25 05:49:12;;;;;;;8.50;5.72;;;;;;;13.10;100.00;100652.34;5049198;28;20021;-76
2023/07/25 05:51:37;;;;;;;13.63;5.80;;;;;;;13.20;100.00;100671.16;5043856;28;20484;-76
2023/07/25 05:54:03;;;;;;;12.13;5.85;;;;;;;13.24;100.00;100667.59;5047766;28;20496;-76
2023/07/25 05:56:28;;;;;;;9.40;5.45;;;;;;;13.37;100.00;100660.09;5044893;28;20116;-77
2023/07/25 05:58:54;;;;;;;9.20;5.88;;;;;;;13.44;100.00;100665.94;5042805;28;20033;-76
2023/07/25 06:01:19;;;;;;;11.55;6.20;;;;;;;13.53;100.00;100668.22;5046647;28;20121;-76
2023/07/25 06:03:44;;;;;;;8.10;5.55;;;;;;;13.56;100.00;100655.00;5040004;28;20034;-76
2023/07/25 06:06:10;;;;;;;7.93;5.05;;;;;;;13.51;100.00;100656.97;5044614;28;20033;-76
2023/07/25 06:08:36;;;;;;;10.45;5.60;;;;;;;13.50;100.00;100655.25;5045534;28;20028;-76
2023/07/25 06:11:01;;;;;;;13.25;5.38;;;;;;;13.47;100.00;100661.47;5042324;28;20041;-77
2023/07/25 06:13:26;;;;;;;12.30;5.78;;;;;;;13.46;100.00;100651.03;5045724;28;20043;-77
2023/07/25 06:15:52;;;;;;;10.43;5.40;;;;;;;13.44;100.00;100655.47;5043232;28;20040;-77
2023/07/25 06:18:17;;;;;;;9.55;5.03;;;;;;;13.49;100.00;100657.00;5044853;28;20078;-76
2023/07/25 06:20:42;;;;;;;12.75;5.40;;;;;;;13.57;100.00;100659.38;5041196;28;20060;-77
2023/07/25 06:23:08;;;;;;;8.68;5.10;;;;;;;13.68;100.00;100667.63;5043780;28;20033;-76
2023/07/25 06:25:33;;;;;;;10.38;5.00;;;;;;;13.71;100.00;100664.91;5044733;28;20495;-76
2023/07/25 06:27:58;;;;;;;9.80;5.45;;;;;;;13.74;100.00;100661.31;5043875;28;20373;-76
2023/07/25 06:30:24;;;;;;;8.50;4.47;;;;;;;13.91;100.00;100678.97;5043980;28;20179;-77
2023/07/25 06:32:49;;;;;;;8.15;4.35;;;;;;;14.03;100.00;100675.88;5045213;28;20400;-77
2023/07/25 06:35:14;;;;;;;10.80;4.05;;;;;;;14.05;100.00;100671.41;5046711;28;20044;-77
2023/07/25 06:37:40;;;;;;;5.47;3.88;;;;;;;14.17;100.00;100667.44;5042533;28;20022;-77
2023/07/25 06:40:05;;;;;;;9.00;4.55;;;;;;;14.26;100.00;100670.53;5041966;28;20034;-77
2023/07/25 06:42:31;;;;;;;10.13;4.50;;;;;;;14.29;100.00;100672.19;5044078;28;20033;-77
2023/07/25 06:44:57;;;;;;;8.68;3.75;;;;;;;14.35;100.00;100674.53;5046837;28;20469;-77
2023/07/25 06:47:23;;;;;;;12.85;4.20;;;;;;;14.50;100.00;100680.91;5042043;28;20469;-76
2023/07/25 06:49:49;;;;;;;6.45;3.40;;;;;;;14.61;100.00;100675.25;5048741;28;20469;-76
2023/07/25 06:52:14;;;;;;;7.95;3.90;;;;;;;14.77;100.00;100671.03;5041050;28;20044;-77
2023/07/25 06:54:41;;;;;;;8.60;3.42;;;;;;;14.87;100.00;100669.72;5039495;28;20021;-77
2023/07/25 06:57:06;;;;;;;10.05;4.68;;;;;;;14.99;100.00;100668.31;5044424;28;20025;-76
2023/07/25 06:59:32;;;;;;;10.68;4.15;;;;;;;15.12;100.00;100679.13;5036276;28;20036;-76
2023/07/25 07:01:57;;;;;;;8.82;3.83;;;;;;;15.18;100.00;100679.72;5039224;28;20545;-76
2023/07/25 07:04:22;;;;;;;14.10;4.53;;;;;;;15.12;100.00;100674.72;5039734;28;20072;-72
2023/07/25 07:06:48;;;;;;;12.65;4.35;;;;;;;15.09;100.00;100674.88;5043431;28;20040;-72
2023/07/25 07:09:13;;;;;;;10.05;3.38;;;;;;;15.07;100.00;100681.94;5033814;28;20030;-73
2023/07/25 07:11:39;;;;;;;6.93;3.20;;;;;;;15.25;100.00;100682.91;5046546;28;20104;-72
2023/07/25 07:14:05;;;;;;;13.05;3.70;;;;;;;15.63;100.00;100682.91;5033118;28;20029;-73
2023/07/25 07:16:30;;;;;;;9.07;3.28;;;;;;;16.12;100.00;100691.09;5042070;28;20108;-73
2023/07/25 07:18:56;;;;;;;7.22;3.35;;;;;;;16.45;100.00;100687.72;5039985;28;20160;-73
2023/07/25 07:21:21;;;;;;;7.53;3.25;;;;;;;16.58;100.00;100692.31;5035188;28;20053;-73
2023/07/25 07:23:46;;;;;;;7.47;3.30;;;;;;;16.63;100.00;100685.03;5044299;28;20132;-72
2023/07/25 07:26:11;;;;;;;7.25;3.05;;;;;;;16.64;100.00;100691.13;5042614;28;20107;-72
2023/07/25 07:28:37;;;;;;;10.25;2.67;;;;;;;16.58;100.00;100694.09;5043406;28;20024;-72
2023/07/25 07:31:02;;;;;;;7.45;3.00;;;;;;;16.42;100.00;100685.28;5044335;28;20535;-71
2023/07/25 07:33:29;;;;;;;5.03;2.50;;;;;;;16.36;100.00;100694.31;5030314;28;20060;-72
2023/07/25 07:35:54;;;;;;;11.90;2.55;;;;;;;16.22;100.00;100694.13;5037464;28;20036;-72
2023/07/25 07:38:20;;;;;;;10.38;2.97;;;;;;;16.17;100.00;100698.78;5043607;28;20385;-72
2023/07/25 07:40:45;;;;;;;7.63;2.88;;;;;;;16.19;100.00;100686.41;5040002;28;20104;-71
2023/07/25 07:43:10;;;;;;;8.95;2.50;;;;;;;16.19;100.00;100686.41;5036717;28;20107;-72
2023/07/25 07:45:36;;;;;;;8.77;2.20;;;;;;;16.23;100.00;100711.63;5042623;28;20021;-72
2023/07/25 07:48:01;;;;;;;6.65;2.50;;;;;;;16.14;100.00;100708.50;5042677;28;20029;-72
2023/07/25 07:50:28;;;;;;;6.50;2.78;;;;;;;16.04;100.00;100716.94;5034484;28;20048;-72
2023/07/25 07:52:53;;;;;;;9.80;2.60;;;;;;;15.85;100.00;100715.16;5035949;28;20481;-72
2023/07/25 07:55:19;;;;;;;5.18;2.33;;;;;;;15.62;100.00;100716.22;5035818;28;20111;-75
2023/07/25 07:57:46;;;;;;;7.22;2.30;;;;;;;15.44;100.00;100724.97;5040538;28;20508;-76
2023/07/25 08:00:13;;;;;;;7.45;2.05;;;;;;;15.34;100.00;100721.06;5042932;28;20021;-75
2023/07/25 08:02:39;;;;;;;5.78;2.05;;;;;;;15.36;100.00;100719.19;5037403;28;20029;-75
2023/07/25 08:05:05;;;;;;;6.13;1.80;;;;;;;15.44;100.00;100715.31;5043909;28;20074;-76
2023/07/25 08:07:30;;;;;;;10.48;2.17;;;;;;;15.67;100.00;100724.78;5042393;28;20021;-76
2023/07/25 08:09:56;;;;;;;5.90;2.10;;;;;;;15.96;100.00;100725.19;5042227;28;20049;-77
2023/07/25 08:12:23;;;;;;;5.05;1.92;;;;;;;16.39;100.00;100731.84;5044263;28;20474;-76
2023/07/25 08:14:48;;;;;;;7.35;1.85;;;;;;;16.65;100.00;100720.97;5040748;28;20473;-76
2023/07/25 08:17:14;;;;;;;8.70;1.92;;;;;;;16.81;100.00;100719.28;5045720;28;20037;-76
2023/07/25 08:19:39;;;;;;;4.28;1.80;;;;;;;16.77;100.00;100720.34;5035219;28;20034;-77
2023/07/25 08:22:05;;;;;;;4.45;1.65;;;;;;;16.78;100.00;100724.69;5038274;28;20384;-75
2023/07/25 08:24:32;;;;;;;5.60;1.40;;;;;;;16.67;96.18;100726.97;5034689;28;20026;-76
2023/07/25 08:26:59;;;;;;;5.32;1.73;;;;;;;16.50;100.00;100733.94;5046995;28;20045;-76
2023/07/25 08:29:24;;;;;;;6.68;1.85;;;;;;;16.36;95.27;100739.03;5039836;28;20036;-76
2023/07/25 08:31:50;;;;;;;5.78;1.65;;;;;;;16.12;98.07;100744.56;5034672;28;20029;-76
2023/07/25 08:34:15;;;;;;;10.82;2.00;;;;;;;15.89;100.00;100742.16;5046894;28;20041;-75
2023/07/25 08:36:40;;;;;;;5.40;1.60;;;;;;;15.71;97.13;100736.00;5039863;28;20439;-75
2023/07/25 08:39:06;;;;;;;5.13;1.67;;;;;;;15.85;99.57;100741.47;5047193;28;20029;-75
2023/07/25 08:41:35;;;;;;;5.80;1.88;;;;;;;16.21;100.00;100747.66;5040094;28;20117;-75
2023/07/25 08:44:02;;;;;;;6.63;1.70;;;;;;;16.44;100.00;100747.41;5038853;28;20060;-75
2023/07/25 08:46:30;;;;;;;8.50;1.90;;;;;;;16.61;96.89;100736.91;5045416;28;20075;-75
2023/07/25 08:49:00;;;;;;;4.93;1.60;;;;;;;16.72;94.15;100751.31;5040284;28;20060;-75
2023/07/25 08:51:27;;;;;;;8.55;1.98;;;;;;;16.85;97.29;100740.09;5043920;28;20029;-75
2023/07/25 08:54:19;;;;;;;8.40;1.50;;;;;;;17.17;96.17;100760.44;5042269;28;20109;-75
2023/07/25 08:56:45;;;;;;;5.05;2.00;;;;;;;17.36;91.58;100749.75;5046053;28;20041;-75
2023/07/25 08:59:12;;;;;;;4.13;1.40;;;;;;;17.53;88.24;100749.75;5029745;28;20436;-76
2023/07/25 09:01:38;;;;;;;4.05;1.63;;;;;;;17.90;87.60;100753.03;5045579;28;20515;-76
2023/07/25 09:04:04;;;;;;;6.18;1.60;;;;;;;18.19;84.06;100751.41;5039709;28;20061;-75
2023/07/25 09:06:31;;;;;;;5.65;1.65;;;;;;;18.53;83.74;100752.09;5036723;28;20067;-75
2023/07/25 09:08:56;;;;;;;5.40;1.70;;;;;;;18.58;79.86;100750.06;5040561;28;20040;-76
2023/07/25 09:11:21;;;;;;;5.38;1.50;;;;;;;18.52;82.09;100750.41;5037013;28;20029;-75
2023/07/25 09:13:48;;;;;;;4.85;2.03;;;;;;;18.68;77.20;100753.84;5033298;28;20516;-76
2023/07/25 09:16:14;;;;;;;3.78;1.55;;;;;;;19.02;78.87;100744.78;5033859;28;20087;-76
2023/07/25 09:18:39;;;;;;;6.03;1.83;;;;;;;19.38;78.23;100748.78;5042291;28;20473;-73
2023/07/25 09:21:05;;;;;;;5.70;1.65;;;;;;;19.55;69.31;100753.00;5043312;28;20437;-73
2023/07/25 09:23:30;;;;;;;5.53;1.90;;;;;;;19.71;72.84;100758.22;5039435;28;20036;-72
2023/07/25 09:26:04;;;;;;;4.40;1.60;;;;;;;19.90;71.57;100745.53;5042532;28;20078;-73
2023/07/25 09:28:30;;;;;;;3.63;1.52;;;;;;;19.86;68.11;100755.47;5037630;28;20559;-72
2023/07/25 09:30:55;;;;;;;7.05;2.10;;;;;;;19.46;70.81;100753.63;5046484;28;20068;-73
2023/07/25 09:33:27;;;;;;;4.47;1.83;;;;;;;19.13;68.73;100757.38;5043519;28;20096;-72
2023/07/25 09:35:52;;;;;;;4.70;1.67;;;;;;;18.76;67.43;100756.06;5042583;28;20040;-72
2023/07/25 09:38:18;;;;;;;8.63;1.98;;;;;;;18.55;71.06;100763.44;5041587;28;20025;-75
2023/07/25 09:40:45;;;;;;;3.65;1.63;;;;;;;18.62;72.31;100764.75;5044037;28;20032;-75
2023/07/25 09:43:24;;;;;;;3.88;1.70;;;;;;;18.81;74.58;100754.84;5046413;28;20122;-75
2023/07/25 09:45:51;;;;;;;7.00;2.03;;;;;;;18.68;70.17;100754.69;5027018;28;20363;-75
2023/07/25 09:48:16;;;;;;;5.10;1.52;;;;;;;18.49;67.72;100773.38;5045221;28;20067;-75
2023/07/25 09:50:44;;;;;;;5.38;1.77;;;;;;;18.24;69.09;100765.16;5042872;28;20114;-75
2023/07/25 09:53:14;;;;;;;7.03;2.65;;;;;;;18.07;77.17;100766.13;5046246;28;20099;-75
2023/07/25 09:55:40;;;;;;;4.40;1.70;;;;;;;18.18;83.65;100773.41;5042478;28;20018;-75
2023/07/25 09:58:06;;;;;;;8.05;1.65;;;;;;;18.28;76.12;100764.06;5046064;28;20068;-75
2023/07/25 10:00:31;;;;;;;4.22;1.90;;;;;;;18.73;72.81;100770.28;5043396;28;20499;-75
2023/07/25 10:03:00;;;;;;;3.75;1.35;;;;;;;19.46;76.99;100767.69;5045340;28;20099;-74
2023/07/25 10:05:27;;;;;;;3.20;1.60;;;;;;;20.15;64.98;100766.00;5044891;28;20033;-75
2023/07/25 10:07:53;;;;;;;5.65;1.55;;;;;;;20.50;66.52;100754.88;5044706;28;20029;-75
2023/07/25 10:10:19;;;;;;;7.97;2.05;;;;;;;20.37;67.31;100759.28;5045171;28;20037;-75
2023/07/25 10:12:45;;;;;;;5.70;1.58;;;;;;;20.27;66.43;100749.31;5043348;28;20096;-75
2023/07/25 10:15:12;;;;;;;4.50;1.70;;;;;;;20.04;65.04;100761.38;5046023;28;20108;-76
2023/07/25 10:17:37;;;;;;;4.57;1.50;;;;;;;19.65;68.17;100762.09;5044100;28;20017;-76
2023/07/25 10:20:05;;;;;;;4.90;1.63;;;;;;;19.13;73.25;100766.16;5044553;28;20036;-75
2023/07/25 10:22:44;;;;;;;7.07;1.60;;;;;;;19.04;75.66;100760.56;5045442;28;20067;-75
2023/07/25 10:25:11;;;;;;;5.07;1.30;;;;;;;18.85;61.93;100766.09;5043546;28;20030;-75
2023/07/25 10:27:37;;;;;;;6.97;1.60;;;;;;;18.97;65.39;100761.88;5036279;28;20036;-73
2023/07/25 10:30:19;;;;;;;4.28;1.45;;;;;;;19.23;68.89;100763.81;5041823;28;20381;-75
2023/07/25 10:32:51;;;;;;;2.45;1.40;;;;;;;19.50;66.27;100760.41;5044797;28;20484;-76
2023/07/25 10:35:16;;;;;;;3.90;1.35;;;;;;;19.70;60.17;100761.84;5045083;28;20431;-75
2023/07/25 10:37:43;;;;;;;3.90;1.30;;;;;;;20.02;68.09;100765.09;5042625;28;20083;-73
2023/07/25 10:40:16;;;;;;;3.80;1.38;;;;;;;20.30;61.62;100764.97;5042496;28;20376;-72
2023/07/25 10:42:42;;;;;;;3.55;1.20;;;;;;;20.84;60.51;100755.31;5033205;28;20021;-73
2023/07/25 10:45:28;;;;;;;3.97;1.33;;;;;;;21.21;60.41;100756.28;5042903;28;20037;-73
2023/07/25 10:47:54;;;;;;;6.72;1.55;;;;;;;20.88;58.22;100760.28;5035244;28;20472;-73
2023/07/25 10:50:24;;;;;;;5.10;1.45;;;;;;;20.24;62.60;100765.41;5039535;28;20037;-73
2023/07/25 10:52:49;;;;;;;4.05;1.40;;;;;;;19.63;62.55;100766.63;5035654;28;20025;-73
2023/07/25 10:55:15;;;;;;;6.45;1.95;;;;;;;19.11;69.75;100768.03;5039832;28;20036;-73
2023/07/25 10:57:40;;;;;;;4.18;1.48;;;;;;;18.84;66.83;100775.81;5039842;28;20108;-72
2023/07/25 11:00:08;;;;;;;4.60;1.60;;;;;;;18.50;64.91;100758.41;5033799;28;20025;-72
2023/07/25 11:02:40;;;;;;;5.38;1.60;;;;;;;18.48;68.78;100765.56;5039502;28;20084;-73
2023/07/25 11:05:11;;;;;;;5.22;1.88;;;;;;;18.88;73.69;100758.84;5041542;28;20484;-72
2023/07/25 11:07:37;;;;;;;4.28;1.58;;;;;;;19.50;67.19;100750.66;5038343;28;20029;-72
2023/07/25 11:10:03;;;;;;;4.20;1.35;;;;;;;20.07;61.99;100752.38;5044700;28;20393;-73
2023/07/25 11:12:28;;;;;;;7.28;1.48;;;;;;;20.67;62.57;100746.69;5043465;28;20048;-73